TAM3702 SBSP-SBFL
Flight info
| Callsign | TAM3702 |
|---|---|
| Flight time | 0h 51m |
| Altitude | 34000 |
| Route | MADNI UZ92 PUBIS |
| Aircraft | A320/M-SDE3FGHIRWY/LB1 |
Departure
| Time | 2026-04-25 13:58 |
|---|---|
| Airport | Congonhas–Deputado Freitas Nobre Airport (SBSP) |
Arrival
| Time | 2026-04-25 14:50 |
|---|---|
| Airport | Hercílio Luz International Airport (SBFL) |
| Time | Latitude | Longitude | Altitude | Speed | Heading |
|---|---|---|---|---|---|
| 2026-04-25 13:19 | -23.62813 | -46.65757 | 2601 ft | 0 kts | 238° |
| 2026-04-25 13:26 | -23.62813 | -46.65756 | 2601 ft | 0 kts | 238° |
| 2026-04-25 13:45 | -23.62812 | -46.65754 | 2601 ft | 2 kts | 238° |
| 2026-04-25 13:46 | -23.62805 | -46.65743 | 2602 ft | 2 kts | 239° |
| 2026-04-25 13:46 | -23.62798 | -46.65730 | 2602 ft | 2 kts | 233° |
| 2026-04-25 13:46 | -23.62794 | -46.65723 | 2601 ft | 1 kts | 201° |
| 2026-04-25 13:46 | -23.62789 | -46.65720 | 2601 ft | 1 kts | 165° |
| 2026-04-25 13:47 | -23.62784 | -46.65722 | 2601 ft | 1 kts | 153° |
| 2026-04-25 13:47 | -23.62779 | -46.65724 | 2601 ft | 1 kts | 150° |
| 2026-04-25 13:47 | -23.62774 | -46.65727 | 2601 ft | 1 kts | 149° |
| 2026-04-25 13:47 | -23.62774 | -46.65728 | 2601 ft | 0 kts | 149° |
| 2026-04-25 13:50 | -23.62775 | -46.65727 | 2601 ft | 1 kts | 149° |
| 2026-04-25 13:50 | -23.62776 | -46.65725 | 2601 ft | 0 kts | 138° |
| 2026-04-25 13:50 | -23.62783 | -46.65714 | 2601 ft | 3 kts | 116° |
| 2026-04-25 13:50 | -23.62790 | -46.65690 | 2602 ft | 3 kts | 109° |
| 2026-04-25 13:51 | -23.62794 | -46.65680 | 2602 ft | 0 kts | 115° |
| 2026-04-25 13:51 | -23.62802 | -46.65663 | 2603 ft | 2 kts | 122° |
| 2026-04-25 13:51 | -23.62812 | -46.65655 | 2603 ft | 2 kts | 147° |
| 2026-04-25 13:51 | -23.62828 | -46.65645 | 2603 ft | 4 kts | 150° |
| 2026-04-25 13:52 | -23.62845 | -46.65635 | 2603 ft | 2 kts | 150° |
| 2026-04-25 13:52 | -23.62872 | -46.65616 | 2603 ft | 4 kts | 147° |
| 2026-04-25 13:52 | -23.62893 | -46.65601 | 2603 ft | 3 kts | 147° |
| 2026-04-25 13:52 | -23.62905 | -46.65593 | 2603 ft | 1 kts | 147° |
| 2026-04-25 13:53 | -23.62927 | -46.65577 | 2603 ft | 8 kts | 146° |
| 2026-04-25 13:53 | -23.62986 | -46.65533 | 2604 ft | 10 kts | 148° |
| 2026-04-25 13:53 | -23.63054 | -46.65519 | 2602 ft | 8 kts | 172° |
| 2026-04-25 13:53 | -23.63101 | -46.65489 | 2602 ft | 8 kts | 145° |
| 2026-04-25 13:54 | -23.63143 | -46.65459 | 2602 ft | 7 kts | 151° |
| 2026-04-25 13:54 | -23.63189 | -46.65431 | 2602 ft | 9 kts | 149° |
| 2026-04-25 13:54 | -23.63243 | -46.65395 | 2602 ft | 8 kts | 145° |
| 2026-04-25 13:54 | -23.63288 | -46.65362 | 2602 ft | 7 kts | 146° |
| 2026-04-25 13:55 | -23.63332 | -46.65330 | 2602 ft | 7 kts | 146° |
| 2026-04-25 13:55 | -23.63371 | -46.65302 | 2602 ft | 7 kts | 146° |
| 2026-04-25 13:55 | -23.63414 | -46.65272 | 2602 ft | 8 kts | 148° |
| 2026-04-25 13:55 | -23.63461 | -46.65241 | 2601 ft | 8 kts | 148° |
| 2026-04-25 13:56 | -23.63503 | -46.65204 | 2600 ft | 8 kts | 120° |
| 2026-04-25 13:56 | -23.63490 | -46.65151 | 2599 ft | 8 kts | 46° |
| 2026-04-25 13:56 | -23.63442 | -46.65111 | 2600 ft | 7 kts | 8° |
| 2026-04-25 13:56 | -23.63421 | -46.65122 | 2601 ft | 0 kts | 324° |
| 2026-04-25 13:57 | -23.63254 | -46.65240 | 2610 ft | 66 kts | 328° |
| 2026-04-25 13:57 | -23.62663 | -46.65648 | 2607 ft | 132 kts | 327° |
| 2026-04-25 13:58 | -23.61786 | -46.66245 | 2935 ft | 154 kts | 329° |
| 2026-04-25 13:58 | -23.60866 | -46.66864 | 3658 ft | 156 kts | 326° |
| 2026-04-25 13:58 | -23.60013 | -46.67540 | 4333 ft | 148 kts | 304° |
| 2026-04-25 13:58 | -23.59642 | -46.68562 | 4943 ft | 146 kts | 285° |
| 2026-04-25 13:59 | -23.59355 | -46.69614 | 5500 ft | 145 kts | 288° |
| 2026-04-25 13:59 | -23.59047 | -46.70654 | 6057 ft | 143 kts | 288° |
| 2026-04-25 13:59 | -23.58737 | -46.71677 | 6602 ft | 142 kts | 287° |
| 2026-04-25 13:59 | -23.58426 | -46.72694 | 7104 ft | 141 kts | 287° |
| 2026-04-25 14:00 | -23.58113 | -46.73713 | 7565 ft | 142 kts | 287° |
| 2026-04-25 14:00 | -23.57797 | -46.74732 | 8021 ft | 142 kts | 287° |
| 2026-04-25 14:00 | -23.57481 | -46.75754 | 8464 ft | 142 kts | 285° |
| 2026-04-25 14:00 | -23.57402 | -46.76817 | 8875 ft | 142 kts | 258° |
| 2026-04-25 14:01 | -23.57786 | -46.77801 | 9273 ft | 144 kts | 234° |
| 2026-04-25 14:01 | -23.58605 | -46.78533 | 9477 ft | 165 kts | 210° |
| 2026-04-25 14:01 | -23.59583 | -46.79297 | 9639 ft | 183 kts | 233° |
| 2026-04-25 14:01 | -23.60338 | -46.80516 | 9756 ft | 206 kts | 238° |
| 2026-04-25 14:02 | -23.61157 | -46.81909 | 9914 ft | 231 kts | 238° |
| 2026-04-25 14:02 | -23.62065 | -46.83447 | 10144 ft | 256 kts | 235° |
| 2026-04-25 14:02 | -23.63367 | -46.84889 | 10473 ft | 279 kts | 215° |
| 2026-04-25 14:02 | -23.63930 | -46.85263 | 10643 ft | 284 kts | 209° |
| 2026-04-25 14:03 | -23.67084 | -46.86932 | 11176 ft | 319 kts | 207° |
| 2026-04-25 14:03 | -23.69112 | -46.87981 | 11784 ft | 326 kts | 207° |
| 2026-04-25 14:03 | -23.71177 | -46.89049 | 12468 ft | 331 kts | 207° |
| 2026-04-25 14:03 | -23.73265 | -46.90134 | 13209 ft | 335 kts | 207° |
| 2026-04-25 14:04 | -23.75384 | -46.91222 | 13929 ft | 339 kts | 204° |
| 2026-04-25 14:04 | -23.77656 | -46.91973 | 14554 ft | 344 kts | 192° |
| 2026-04-25 14:04 | -23.80057 | -46.92279 | 15162 ft | 350 kts | 188° |
| 2026-04-25 14:04 | -23.82497 | -46.92536 | 15783 ft | 355 kts | 188° |
| 2026-04-25 14:05 | -23.84968 | -46.92796 | 16390 ft | 359 kts | 188° |
| 2026-04-25 14:05 | -23.87467 | -46.93060 | 16972 ft | 363 kts | 189° |
| 2026-04-25 14:05 | -23.89993 | -46.93330 | 17559 ft | 367 kts | 189° |
| 2026-04-25 14:05 | -23.92553 | -46.93605 | 18140 ft | 371 kts | 189° |
| 2026-04-25 14:06 | -23.95130 | -46.93883 | 18667 ft | 375 kts | 189° |
| 2026-04-25 14:06 | -23.97739 | -46.94162 | 19170 ft | 377 kts | 189° |
| 2026-04-25 14:06 | -24.00357 | -46.94438 | 19689 ft | 380 kts | 189° |
| 2026-04-25 14:06 | -24.02963 | -46.94711 | 20207 ft | 382 kts | 190° |
| 2026-04-25 14:07 | -24.05627 | -46.94990 | 20719 ft | 385 kts | 190° |
| 2026-04-25 14:07 | -24.08301 | -46.95275 | 21230 ft | 387 kts | 190° |
| 2026-04-25 14:07 | -24.10991 | -46.95563 | 21747 ft | 390 kts | 190° |
| 2026-04-25 14:07 | -24.13700 | -46.95853 | 22261 ft | 392 kts | 190° |
| 2026-04-25 14:08 | -24.16427 | -46.96144 | 22766 ft | 395 kts | 191° |
| 2026-04-25 14:08 | -24.19169 | -46.96437 | 23276 ft | 397 kts | 191° |
| 2026-04-25 14:08 | -24.21926 | -46.96733 | 23731 ft | 399 kts | 191° |
| 2026-04-25 14:08 | -24.24701 | -46.97032 | 24117 ft | 402 kts | 191° |
| 2026-04-25 14:09 | -24.27493 | -46.97334 | 24504 ft | 404 kts | 191° |
| 2026-04-25 14:09 | -24.30301 | -46.97637 | 24891 ft | 407 kts | 191° |
| 2026-04-25 14:09 | -24.33126 | -46.97940 | 25279 ft | 409 kts | 191° |
| 2026-04-25 14:09 | -24.34082 | -46.98043 | 25406 ft | 410 kts | 191° |
| 2026-04-25 14:10 | -24.38820 | -46.98551 | 26051 ft | 413 kts | 191° |
| 2026-04-25 14:10 | -24.41697 | -46.98860 | 26425 ft | 415 kts | 192° |
| 2026-04-25 14:10 | -24.44581 | -46.99170 | 26795 ft | 417 kts | 192° |
| 2026-04-25 14:10 | -24.47480 | -46.99482 | 27160 ft | 419 kts | 192° |
| 2026-04-25 14:11 | -24.50353 | -46.99790 | 27519 ft | 421 kts | 192° |
| 2026-04-25 14:11 | -24.53278 | -47.00104 | 27873 ft | 423 kts | 192° |
| 2026-04-25 14:11 | -24.56217 | -47.00421 | 28222 ft | 425 kts | 192° |
| 2026-04-25 14:11 | -24.59116 | -47.00964 | 28562 ft | 421 kts | 200° |
| 2026-04-25 14:12 | -24.61872 | -47.02001 | 28900 ft | 416 kts | 210° |
| 2026-04-25 14:12 | -24.64400 | -47.03488 | 29257 ft | 411 kts | 218° |
| 2026-04-25 14:12 | -24.66800 | -47.05205 | 29622 ft | 412 kts | 218° |
| 2026-04-25 14:12 | -24.69220 | -47.06924 | 29972 ft | 414 kts | 218° |
| 2026-04-25 14:13 | -24.71648 | -47.08641 | 30254 ft | 416 kts | 218° |
| 2026-04-25 14:13 | -24.74091 | -47.10363 | 30523 ft | 418 kts | 218° |
| 2026-04-25 14:13 | -24.76544 | -47.12093 | 30779 ft | 420 kts | 218° |
| 2026-04-25 14:13 | -24.79006 | -47.13839 | 31028 ft | 422 kts | 218° |
| 2026-04-25 14:14 | -24.81476 | -47.15597 | 31278 ft | 424 kts | 218° |
| 2026-04-25 14:14 | -24.83958 | -47.17365 | 31503 ft | 426 kts | 218° |
| 2026-04-25 14:14 | -24.86450 | -47.19138 | 31793 ft | 426 kts | 218° |
| 2026-04-25 14:14 | -24.88941 | -47.20908 | 32134 ft | 426 kts | 218° |
| 2026-04-25 14:15 | -24.91429 | -47.22678 | 32465 ft | 425 kts | 218° |
| 2026-04-25 14:15 | -24.92234 | -47.23250 | 32575 ft | 425 kts | 218° |
| 2026-04-25 14:15 | -24.96396 | -47.26215 | 33163 ft | 424 kts | 218° |
| 2026-04-25 14:15 | -24.98874 | -47.27983 | 33506 ft | 424 kts | 218° |
| 2026-04-25 14:16 | -25.01352 | -47.29748 | 33843 ft | 424 kts | 218° |
| 2026-04-25 14:16 | -25.03828 | -47.31517 | 33971 ft | 422 kts | 218° |
| 2026-04-25 14:16 | -25.06261 | -47.33249 | 33992 ft | 412 kts | 218° |
| 2026-04-25 14:17 | -25.11006 | -47.36635 | 33993 ft | 406 kts | 219° |
| 2026-04-25 14:17 | -25.15735 | -47.40018 | 33992 ft | 405 kts | 219° |
| 2026-04-25 14:18 | -25.20473 | -47.43405 | 33994 ft | 405 kts | 219° |
| 2026-04-25 14:18 | -25.25209 | -47.46794 | 34001 ft | 405 kts | 219° |
| 2026-04-25 14:19 | -25.29929 | -47.50192 | 33997 ft | 405 kts | 219° |
| 2026-04-25 14:19 | -25.34640 | -47.53579 | 33994 ft | 404 kts | 219° |
| 2026-04-25 14:20 | -25.39359 | -47.56977 | 33987 ft | 404 kts | 219° |
| 2026-04-25 14:20 | -25.44044 | -47.60346 | 33989 ft | 404 kts | 219° |
| 2026-04-25 14:21 | -25.48753 | -47.63741 | 33990 ft | 405 kts | 219° |
| 2026-04-25 14:21 | -25.53471 | -47.67140 | 33987 ft | 404 kts | 219° |
| 2026-04-25 14:22 | -25.58185 | -47.70541 | 34002 ft | 404 kts | 219° |
| 2026-04-25 14:22 | -25.62896 | -47.73941 | 34001 ft | 403 kts | 220° |
| 2026-04-25 14:23 | -25.67587 | -47.77336 | 33993 ft | 403 kts | 220° |
| 2026-04-25 14:23 | -25.72278 | -47.80731 | 34001 ft | 402 kts | 220° |
| 2026-04-25 14:24 | -25.76970 | -47.84127 | 33991 ft | 402 kts | 220° |
| 2026-04-25 14:24 | -25.81652 | -47.87518 | 33989 ft | 402 kts | 220° |
| 2026-04-25 14:25 | -25.86331 | -47.90914 | 33989 ft | 402 kts | 220° |
| 2026-04-25 14:25 | -25.90999 | -47.94318 | 33994 ft | 401 kts | 220° |
| 2026-04-25 14:26 | -25.95664 | -47.97703 | 33997 ft | 401 kts | 220° |
| 2026-04-25 14:26 | -26.00328 | -48.01093 | 33993 ft | 400 kts | 220° |
| 2026-04-25 14:27 | -26.05364 | -48.03904 | 33992 ft | 415 kts | 205° |
| 2026-04-25 14:27 | -26.10906 | -48.05644 | 33982 ft | 416 kts | 204° |
| 2026-04-25 14:28 | -26.16476 | -48.07403 | 34000 ft | 416 kts | 204° |
| 2026-04-25 14:28 | -26.22051 | -48.09167 | 33982 ft | 419 kts | 204° |
| 2026-04-25 14:29 | -26.27763 | -48.10985 | 33719 ft | 431 kts | 204° |
| 2026-04-25 14:29 | -26.30646 | -48.11897 | 32990 ft | 430 kts | 204° |
| 2026-04-25 14:29 | -26.33517 | -48.12799 | 32367 ft | 427 kts | 204° |
| 2026-04-25 14:29 | -26.36367 | -48.13688 | 31794 ft | 423 kts | 204° |
| 2026-04-25 14:30 | -26.39159 | -48.14563 | 31259 ft | 420 kts | 204° |
| 2026-04-25 14:30 | -26.43825 | -48.16040 | 30404 ft | 413 kts | 204° |
| 2026-04-25 14:30 | -26.47472 | -48.17198 | 29523 ft | 410 kts | 204° |
| 2026-04-25 14:31 | -26.50245 | -48.18084 | 27818 ft | 420 kts | 204° |
| 2026-04-25 14:31 | -26.53067 | -48.18989 | 27171 ft | 418 kts | 204° |
| 2026-04-25 14:31 | -26.55824 | -48.19859 | 26925 ft | 406 kts | 204° |
| 2026-04-25 14:31 | -26.58503 | -48.20698 | 26677 ft | 394 kts | 204° |
| 2026-04-25 14:32 | -26.60268 | -48.21251 | 26521 ft | 387 kts | 204° |
| 2026-04-25 14:32 | -26.62800 | -48.22048 | 26288 ft | 378 kts | 204° |
| 2026-04-25 14:32 | -26.65293 | -48.22837 | 26058 ft | 368 kts | 205° |
| 2026-04-25 14:32 | -26.67736 | -48.23615 | 25684 ft | 363 kts | 205° |
| 2026-04-25 14:33 | -26.70152 | -48.24392 | 25246 ft | 361 kts | 205° |
| 2026-04-25 14:33 | -26.72562 | -48.25171 | 24790 ft | 359 kts | 205° |
| 2026-04-25 14:33 | -26.74950 | -48.25939 | 24332 ft | 357 kts | 205° |
| 2026-04-25 14:33 | -26.77342 | -48.26704 | 23866 ft | 355 kts | 205° |
| 2026-04-25 14:34 | -26.79692 | -48.27449 | 23387 ft | 347 kts | 205° |
| 2026-04-25 14:34 | -26.81981 | -48.28170 | 22901 ft | 337 kts | 204° |
| 2026-04-25 14:34 | -26.84202 | -48.28872 | 22479 ft | 326 kts | 205° |
| 2026-04-25 14:34 | -26.86354 | -48.29557 | 22068 ft | 317 kts | 205° |
| 2026-04-25 14:35 | -26.88444 | -48.30224 | 21676 ft | 308 kts | 205° |
| 2026-04-25 14:35 | -26.90466 | -48.30872 | 21300 ft | 305 kts | 205° |
| 2026-04-25 14:35 | -26.92524 | -48.31538 | 20935 ft | 304 kts | 204° |
| 2026-04-25 14:35 | -26.94521 | -48.32186 | 20545 ft | 302 kts | 204° |
| 2026-04-25 14:36 | -26.96537 | -48.32839 | 20165 ft | 302 kts | 204° |
| 2026-04-25 14:36 | -26.98558 | -48.33490 | 19787 ft | 301 kts | 204° |
| 2026-04-25 14:36 | -27.00568 | -48.34136 | 19414 ft | 301 kts | 203° |
| 2026-04-25 14:36 | -27.02611 | -48.34710 | 19039 ft | 306 kts | 196° |
| 2026-04-25 14:37 | -27.04761 | -48.34845 | 18645 ft | 315 kts | 184° |
| 2026-04-25 14:37 | -27.06964 | -48.34719 | 18193 ft | 318 kts | 184° |
| 2026-04-25 14:37 | -27.09223 | -48.34592 | 17305 ft | 332 kts | 184° |
| 2026-04-25 14:37 | -27.11583 | -48.34460 | 16403 ft | 346 kts | 183° |
| 2026-04-25 14:38 | -27.14016 | -48.34320 | 15865 ft | 349 kts | 182° |
| 2026-04-25 14:38 | -27.16424 | -48.34173 | 15555 ft | 344 kts | 183° |
| 2026-04-25 14:38 | -27.18803 | -48.34028 | 15165 ft | 340 kts | 183° |
| 2026-04-25 14:38 | -27.21144 | -48.33884 | 14460 ft | 335 kts | 183° |
| 2026-04-25 14:39 | -27.23462 | -48.33747 | 13737 ft | 332 kts | 183° |
| 2026-04-25 14:39 | -27.25725 | -48.33616 | 12956 ft | 328 kts | 183° |
| 2026-04-25 14:39 | -27.27996 | -48.33486 | 12181 ft | 325 kts | 182° |
| 2026-04-25 14:39 | -27.30242 | -48.33360 | 11425 ft | 321 kts | 182° |
| 2026-04-25 14:40 | -27.32464 | -48.33234 | 10689 ft | 318 kts | 181° |
| 2026-04-25 14:40 | -27.34662 | -48.33109 | 10001 ft | 314 kts | 181° |
| 2026-04-25 14:40 | -27.36795 | -48.32984 | 9580 ft | 300 kts | 181° |
| 2026-04-25 14:40 | -27.38847 | -48.32863 | 9137 ft | 288 kts | 181° |
| 2026-04-25 14:41 | -27.40813 | -48.32748 | 8785 ft | 282 kts | 182° |
| 2026-04-25 14:41 | -27.42773 | -48.32636 | 8381 ft | 282 kts | 182° |
| 2026-04-25 14:41 | -27.44730 | -48.32523 | 7979 ft | 281 kts | 182° |
| 2026-04-25 14:41 | -27.46681 | -48.32409 | 7560 ft | 281 kts | 182° |
| 2026-04-25 14:42 | -27.48636 | -48.32296 | 7142 ft | 281 kts | 182° |
| 2026-04-25 14:42 | -27.49926 | -48.32222 | 6883 ft | 281 kts | 182° |
| 2026-04-25 14:42 | -27.52533 | -48.32073 | 6488 ft | 280 kts | 182° |
| 2026-04-25 14:42 | -27.54453 | -48.31962 | 6162 ft | 279 kts | 182° |
| 2026-04-25 14:43 | -27.56409 | -48.31851 | 5838 ft | 277 kts | 182° |
| 2026-04-25 14:43 | -27.58301 | -48.31744 | 5531 ft | 274 kts | 182° |
| 2026-04-25 14:43 | -27.60203 | -48.31636 | 5233 ft | 272 kts | 182° |
| 2026-04-25 14:43 | -27.62086 | -48.31527 | 4918 ft | 270 kts | 181° |
| 2026-04-25 14:44 | -27.63960 | -48.31417 | 4617 ft | 268 kts | 181° |
| 2026-04-25 14:44 | -27.65814 | -48.31312 | 4314 ft | 267 kts | 182° |
| 2026-04-25 14:44 | -27.67642 | -48.31527 | 4019 ft | 262 kts | 198° |
| 2026-04-25 14:44 | -27.69294 | -48.32271 | 3729 ft | 252 kts | 213° |
| 2026-04-25 14:45 | -27.70770 | -48.33285 | 3452 ft | 246 kts | 213° |
| 2026-04-25 14:45 | -27.72217 | -48.34275 | 3185 ft | 241 kts | 213° |
| 2026-04-25 14:45 | -27.73638 | -48.35243 | 2917 ft | 235 kts | 213° |
| 2026-04-25 14:45 | -27.74849 | -48.36393 | 2652 ft | 223 kts | 239° |
| 2026-04-25 14:46 | -27.75287 | -48.37992 | 2423 ft | 210 kts | 273° |
| 2026-04-25 14:46 | -27.74907 | -48.39494 | 2299 ft | 194 kts | 300° |
| 2026-04-25 14:46 | -27.74222 | -48.40751 | 2138 ft | 183 kts | 301° |
| 2026-04-25 14:46 | -27.73582 | -48.41927 | 1981 ft | 173 kts | 301° |
| 2026-04-25 14:47 | -27.72970 | -48.43051 | 1840 ft | 163 kts | 301° |
| 2026-04-25 14:47 | -27.72577 | -48.43771 | 1756 ft | 157 kts | 301° |
| 2026-04-25 14:47 | -27.71835 | -48.45128 | 1568 ft | 152 kts | 301° |
| 2026-04-25 14:47 | -27.71284 | -48.46138 | 1412 ft | 150 kts | 301° |
| 2026-04-25 14:48 | -27.70750 | -48.47146 | 1240 ft | 149 kts | 299° |
| 2026-04-25 14:48 | -27.70253 | -48.48170 | 1047 ft | 148 kts | 298° |
| 2026-04-25 14:48 | -27.69748 | -48.49176 | 888 ft | 146 kts | 301° |
| 2026-04-25 14:48 | -27.69233 | -48.50157 | 710 ft | 144 kts | 301° |
| 2026-04-25 14:49 | -27.68718 | -48.51117 | 483 ft | 142 kts | 302° |
| 2026-04-25 14:49 | -27.68205 | -48.52073 | 272 ft | 143 kts | 300° |
| 2026-04-25 14:49 | -27.67694 | -48.53034 | 84 ft | 143 kts | 300° |
| 2026-04-25 14:49 | -27.67223 | -48.53914 | 24 ft | 105 kts | 302° |
| 2026-04-25 14:50 | -27.66998 | -48.54325 | 28 ft | 18 kts | 301° |
| 2026-04-25 14:50 | -27.66944 | -48.54424 | 28 ft | 10 kts | 301° |
| 2026-04-25 14:50 | -27.66932 | -48.54480 | 28 ft | 7 kts | 251° |
| 2026-04-25 14:50 | -27.66962 | -48.54512 | 28 ft | 6 kts | 218° |
| 2026-04-25 14:51 | -27.66994 | -48.54535 | 27 ft | 5 kts | 212° |
| 2026-04-25 14:51 | -27.67023 | -48.54556 | 27 ft | 5 kts | 212° |
| 2026-04-25 14:51 | -27.67049 | -48.54574 | 27 ft | 4 kts | 212° |
| 2026-04-25 14:51 | -27.67071 | -48.54589 | 27 ft | 3 kts | 209° |
| 2026-04-25 14:52 | -27.67089 | -48.54600 | 27 ft | 3 kts | 209° |
| 2026-04-25 14:52 | -27.67118 | -48.54618 | 27 ft | 7 kts | 207° |
| 2026-04-25 14:52 | -27.67160 | -48.54627 | 27 ft | 6 kts | 174° |
| 2026-04-25 14:52 | -27.67184 | -48.54616 | 27 ft | 5 kts | 148° |
| 2026-04-25 14:53 | -27.67193 | -48.54580 | 27 ft | 3 kts | 54° |
| 2026-04-25 14:53 | -27.67178 | -48.54570 | 27 ft | 2 kts | 28° |
| 2026-04-25 14:53 | -27.67166 | -48.54562 | 27 ft | 2 kts | 30° |
| 2026-04-25 14:53 | -27.67157 | -48.54556 | 27 ft | 0 kts | 30° |